createdAt,value
2019-02-02T00:01:18.291Z,21.10
2019-02-02T00:03:45.839Z,21.73
2019-02-02T00:06:13.276Z,22.53
2019-02-02T00:08:40.682Z,20.43
2019-02-02T00:11:08.102Z,21.57
2019-02-02T00:13:35.551Z,23.20
2019-02-02T00:16:02.965Z,22.20
2019-02-02T00:18:30.938Z,21.80
2019-02-02T00:20:58.367Z,21.77
2019-02-02T00:23:25.891Z,20.73
2019-02-02T00:25:53.360Z,21.07
2019-02-02T00:28:20.880Z,22.07
2019-02-02T00:30:48.449Z,21.17
2019-02-02T00:33:15.861Z,19.67
2019-02-02T00:35:43.315Z,21.40
2019-02-02T00:38:10.802Z,21.10
2019-02-02T00:40:38.261Z,22.70
2019-02-02T00:43:05.986Z,21.63
2019-02-02T00:45:33.456Z,21.87
2019-02-02T00:48:00.836Z,22.47
2019-02-02T00:50:28.326Z,20.90
2019-02-02T00:52:55.751Z,21.30
2019-02-02T00:55:23.181Z,20.53
2019-02-02T00:57:54.038Z,22.07
2019-02-02T01:00:20.126Z,19.97
2019-02-02T01:02:47.541Z,21.00
2019-02-02T01:05:15.536Z,20.80
2019-02-02T01:07:43.056Z,21.30
2019-02-02T01:10:16.846Z,21.23
2019-02-02T01:12:44.308Z,21.40
2019-02-02T01:15:11.895Z,22.53
2019-02-02T01:17:39.341Z,21.93
2019-02-02T01:20:07.706Z,24.37
2019-02-02T01:22:35.086Z,24.47
2019-02-02T01:25:02.736Z,24.93
2019-02-02T01:27:30.116Z,22.43
2019-02-02T01:29:57.546Z,22.97
2019-02-02T01:32:25.021Z,23.33
2019-02-02T01:34:52.451Z,22.70
2019-02-02T01:37:19.826Z,23.57
2019-02-02T01:39:47.236Z,22.40
2019-02-02T01:42:14.696Z,21.43
2019-02-02T01:44:42.086Z,22.60
2019-02-02T01:47:09.521Z,23.27
2019-02-02T01:49:36.937Z,22.40
2019-02-02T01:52:04.509Z,22.60
2019-02-02T01:54:31.926Z,22.83
2019-02-02T01:56:59.391Z,21.63
2019-02-02T01:59:26.842Z,22.63
2019-02-02T02:01:54.256Z,22.73
2019-02-02T02:04:21.650Z,21.50
2019-02-02T02:06:49.126Z,22.13
2019-02-02T02:09:16.562Z,22.03
2019-02-02T02:11:44.061Z,22.53
2019-02-02T02:14:11.500Z,22.30
2019-02-02T02:16:38.957Z,23.27
2019-02-02T02:19:06.357Z,23.30
2019-02-02T02:21:33.826Z,22.43
2019-02-02T02:24:01.206Z,22.57
2019-02-02T02:26:28.661Z,24.07
2019-02-02T02:28:56.061Z,23.97
2019-02-02T02:31:23.491Z,20.87
2019-02-02T02:33:50.901Z,22.37
2019-02-02T02:36:18.341Z,22.87
2019-02-02T02:38:45.804Z,23.10
2019-02-02T02:41:13.242Z,24.43
2019-02-02T02:43:40.641Z,22.20
2019-02-02T02:46:08.122Z,22.37
2019-02-02T02:48:35.519Z,21.43
2019-02-02T02:51:03.002Z,22.13
2019-02-02T02:53:30.427Z,22.20
2019-02-02T02:55:57.846Z,21.97
2019-02-02T02:58:25.251Z,22.73
2019-02-02T03:00:52.633Z,24.50
2019-02-02T03:03:20.061Z,24.00
2019-02-02T03:05:47.635Z,26.10
2019-02-02T03:08:15.621Z,24.33
2019-02-02T03:10:43.040Z,23.33
2019-02-02T03:13:10.548Z,24.30
2019-02-02T03:15:37.940Z,23.57
2019-02-02T03:18:05.486Z,24.17
2019-02-02T03:20:32.886Z,24.77
2019-02-02T03:23:00.332Z,23.30
2019-02-02T03:25:32.266Z,22.80
2019-02-02T03:27:59.741Z,24.93
2019-02-02T03:30:27.148Z,23.23
2019-02-02T03:32:54.603Z,23.33
2019-02-02T03:35:22.464Z,23.47
2019-02-02T03:37:50.101Z,24.53
2019-02-02T03:40:19.056Z,22.70
2019-02-02T03:42:46.517Z,24.60
2019-02-02T03:45:15.725Z,24.80
2019-02-02T03:47:43.188Z,24.63
2019-02-02T03:50:10.722Z,22.63
2019-02-02T03:52:38.308Z,24.40
2019-02-02T03:55:06.056Z,23.33
2019-02-02T03:57:33.442Z,22.87
2019-02-02T04:00:00.941Z,23.77
2019-02-02T04:02:28.326Z,22.73
2019-02-02T04:04:55.900Z,22.37
2019-02-02T04:07:23.291Z,23.50
2019-02-02T04:09:50.736Z,23.20
2019-02-02T04:12:18.157Z,22.47
2019-02-02T04:14:45.696Z,23.77
2019-02-02T04:17:13.125Z,23.63
2019-02-02T04:19:40.586Z,23.70
2019-02-02T04:22:08.101Z,23.00
2019-02-02T04:24:35.526Z,23.33
2019-02-02T04:27:02.983Z,22.73
2019-02-02T04:29:30.426Z,22.30
2019-02-02T04:31:57.851Z,21.93
2019-02-02T04:34:25.359Z,25.07
2019-02-02T04:36:52.749Z,22.83
2019-02-02T04:39:20.186Z,23.00
2019-02-02T04:41:47.586Z,23.63
2019-02-02T04:44:15.071Z,24.53
2019-02-02T04:46:42.491Z,23.27
2019-02-02T04:49:09.946Z,22.57
2019-02-02T04:51:37.346Z,23.17
2019-02-02T04:54:04.916Z,22.53
2019-02-02T04:56:32.363Z,22.80
2019-02-02T04:58:59.796Z,23.57
2019-02-02T05:01:27.201Z,23.90
2019-02-02T05:03:54.611Z,23.37
2019-02-02T05:06:21.986Z,23.53
2019-02-02T05:08:49.402Z,23.53
2019-02-02T05:11:16.808Z,22.67
2019-02-02T05:13:44.296Z,23.23
2019-02-02T05:16:11.781Z,22.67
2019-02-02T05:18:39.166Z,21.47
2019-02-02T05:21:06.596Z,23.57
2019-02-02T05:23:33.977Z,22.37
2019-02-02T05:26:01.421Z,24.00
2019-02-02T05:28:28.808Z,23.93
2019-02-02T05:30:56.237Z,23.33
2019-02-02T05:33:23.617Z,24.50
2019-02-02T05:35:51.117Z,22.80
2019-02-02T05:38:18.541Z,23.07
2019-02-02T05:40:46.127Z,22.43
2019-02-02T05:43:13.536Z,24.17
2019-02-02T05:45:40.976Z,21.97
2019-02-02T05:48:08.361Z,21.80
2019-02-02T05:50:35.872Z,23.07
2019-02-02T05:53:03.478Z,22.03
2019-02-02T05:55:30.902Z,22.93
2019-02-02T05:57:58.285Z,23.40
2019-02-02T06:00:48.320Z,25.20
2019-02-02T06:03:15.719Z,25.57
2019-02-02T06:05:43.161Z,25.47
2019-02-02T06:08:10.966Z,25.40
2019-02-02T06:10:38.388Z,24.70
2019-02-02T06:13:05.815Z,24.83
2019-02-02T06:15:39.076Z,24.43
2019-02-02T06:18:06.456Z,24.97
2019-02-02T06:20:33.881Z,23.33
2019-02-02T06:23:01.286Z,25.27
2019-02-02T06:25:28.762Z,25.43
2019-02-02T06:27:56.161Z,25.40
2019-02-02T06:30:23.893Z,25.20
2019-02-02T06:32:51.296Z,25.70
2019-02-02T06:35:18.762Z,25.77
2019-02-02T06:37:46.241Z,26.57
2019-02-02T06:40:14.551Z,25.60
2019-02-02T06:42:41.967Z,27.00
2019-02-02T06:45:13.056Z,26.73
2019-02-02T06:47:40.476Z,26.10
2019-02-02T06:50:10.126Z,26.87
2019-02-02T06:52:37.567Z,26.03
2019-02-02T06:55:05.356Z,26.33
2019-02-02T06:57:32.765Z,25.80
2019-02-02T07:00:00.217Z,28.30
2019-02-02T07:02:27.721Z,27.20
2019-02-02T07:04:55.121Z,26.47
2019-02-02T07:07:22.542Z,27.07
2019-02-02T07:09:49.940Z,27.57
2019-02-02T07:12:17.511Z,26.67
2019-02-02T07:14:44.907Z,27.47
2019-02-02T07:17:12.336Z,28.13
2019-02-02T07:19:39.714Z,28.87
2019-02-02T07:22:07.166Z,29.83
2019-02-02T07:24:38.175Z,30.40
2019-02-02T07:27:05.637Z,30.07
2019-02-02T07:29:33.021Z,30.00
2019-02-02T07:32:00.521Z,30.10
2019-02-02T07:34:27.906Z,29.00
2019-02-02T07:36:55.336Z,29.00
2019-02-02T07:39:22.729Z,28.73
2019-02-02T07:41:50.196Z,30.20
2019-02-02T07:44:17.611Z,30.63
2019-02-02T07:46:45.042Z,30.70
2019-02-02T07:49:12.442Z,29.97
2019-02-02T07:51:39.851Z,29.13
2019-02-02T07:54:07.316Z,30.73
2019-02-02T07:56:34.756Z,30.40
2019-02-02T07:59:02.184Z,29.37
2019-02-02T08:01:29.646Z,29.77
2019-02-02T08:03:57.051Z,27.53
2019-02-02T08:06:24.431Z,28.90
2019-02-02T08:08:51.941Z,28.57
2019-02-02T08:11:19.346Z,29.93
2019-02-02T08:13:46.961Z,30.23
2019-02-02T08:16:14.347Z,29.77
2019-02-02T08:18:41.800Z,30.63
2019-02-02T08:21:09.196Z,32.73
2019-02-02T08:23:36.636Z,32.37
2019-02-02T08:26:04.171Z,33.87
2019-02-02T08:28:31.652Z,33.40
2019-02-02T08:30:59.059Z,31.03
2019-02-02T08:33:26.520Z,32.07
2019-02-02T08:35:53.921Z,32.90
2019-02-02T08:38:21.381Z,36.27
2019-02-02T08:40:48.763Z,32.30
2019-02-02T08:43:16.232Z,32.00
2019-02-02T08:45:43.733Z,33.63
2019-02-02T08:48:11.144Z,47.97
2019-02-02T08:50:38.821Z,31.63
2019-02-02T08:53:07.310Z,32.97
2019-02-02T08:55:34.785Z,31.40
2019-02-02T08:58:02.385Z,31.70
2019-02-02T09:00:29.756Z,30.83
2019-02-02T09:02:57.202Z,31.30
2019-02-02T09:05:24.674Z,34.30
2019-02-02T09:07:52.141Z,31.90
2019-02-02T09:10:21.577Z,35.97
2019-02-02T09:12:49.046Z,34.57
2019-02-02T09:15:16.881Z,33.07
2019-02-02T09:17:44.280Z,37.57
2019-02-02T09:20:13.256Z,34.43
2019-02-02T09:22:41.119Z,32.43
2019-02-02T09:25:10.411Z,33.50
2019-02-02T09:27:38.260Z,32.17
2019-02-02T09:30:15.312Z,34.70
2019-02-02T09:32:42.846Z,33.90
2019-02-02T09:35:10.401Z,34.63
2019-02-02T09:37:38.214Z,33.97
2019-02-02T09:40:06.687Z,37.73
2019-02-02T09:42:34.076Z,34.20
2019-02-02T09:45:01.502Z,32.60
2019-02-02T09:47:28.912Z,32.70
2019-02-02T09:49:56.376Z,33.40
2019-02-02T09:52:23.781Z,35.37
2019-02-02T09:54:51.344Z,34.43
2019-02-02T09:57:18.801Z,31.53
2019-02-02T09:59:46.295Z,35.53
2019-02-02T10:02:13.716Z,35.77
2019-02-02T10:04:41.302Z,34.07
2019-02-02T10:07:10.787Z,41.90
2019-02-02T10:09:38.206Z,37.10
2019-02-02T10:12:05.686Z,33.40
2019-02-02T10:14:33.085Z,33.63
2019-02-02T10:17:00.532Z,35.03
2019-02-02T10:19:27.967Z,38.03
2019-02-02T10:21:55.417Z,34.53
2019-02-02T10:24:22.812Z,37.60
2019-02-02T10:26:50.303Z,33.07
2019-02-02T10:29:17.717Z,32.67
2019-02-02T10:31:45.224Z,43.90
2019-02-02T10:34:12.643Z,40.20
2019-02-02T10:36:40.098Z,34.93
2019-02-02T10:39:08.014Z,51.03
2019-02-02T10:41:35.665Z,37.20
2019-02-02T10:44:03.160Z,43.07
2019-02-02T10:46:31.625Z,37.83
2019-02-02T10:48:59.016Z,36.17
2019-02-02T10:51:26.558Z,38.07
2019-02-02T10:53:54.052Z,34.90
2019-02-02T10:56:21.534Z,34.70
2019-02-02T10:58:48.967Z,37.13
2019-02-02T11:01:16.427Z,36.00
2019-02-02T11:03:44.232Z,35.63
2019-02-02T11:06:11.741Z,34.87
2019-02-02T11:08:39.241Z,38.90
2019-02-02T11:11:06.786Z,35.63
2019-02-02T11:13:34.332Z,36.33
2019-02-02T11:16:01.819Z,40.10
2019-02-02T11:18:29.262Z,34.47
2019-02-02T11:20:56.722Z,36.33
2019-02-02T11:23:24.299Z,36.07
2019-02-02T11:25:52.045Z,34.50
2019-02-02T11:28:19.646Z,37.87
2019-02-02T11:30:47.177Z,36.33
2019-02-02T11:33:14.582Z,36.83
2019-02-02T11:35:41.997Z,35.30
2019-02-02T11:38:09.454Z,39.30
2019-02-02T11:40:36.853Z,40.27
2019-02-02T11:43:04.761Z,37.53
2019-02-02T11:45:32.162Z,32.83
2019-02-02T11:47:59.687Z,36.77
2019-02-02T11:50:27.448Z,37.67
2019-02-02T11:52:55.144Z,39.50
2019-02-02T11:55:22.753Z,46.90
2019-02-02T11:57:50.513Z,41.63
2019-02-02T12:00:20.989Z,38.87
2019-02-02T12:02:49.782Z,39.00
2019-02-02T12:05:17.530Z,35.50
2019-02-02T12:07:45.065Z,36.33
2019-02-02T12:10:14.675Z,36.30
2019-02-02T12:12:42.420Z,39.43
2019-02-02T12:15:11.768Z,41.03
2019-02-02T12:17:39.326Z,33.90
2019-02-02T12:20:08.770Z,40.50
2019-02-02T12:22:36.291Z,36.90
2019-02-02T12:25:04.581Z,37.13
2019-02-02T12:27:32.044Z,39.17
2019-02-02T12:29:59.575Z,37.63
2019-02-02T12:32:27.216Z,36.37
2019-02-02T12:34:54.930Z,34.60
2019-02-02T12:37:22.400Z,38.23
2019-02-02T12:39:50.301Z,36.23
2019-02-02T12:42:17.730Z,37.97
2019-02-02T12:44:45.140Z,36.57
2019-02-02T12:47:21.220Z,38.97
2019-02-02T12:49:56.635Z,39.03
2019-02-02T12:52:25.520Z,38.73
2019-02-02T12:54:53.142Z,36.83
2019-02-02T13:00:02.887Z,50.47
2019-02-02T13:02:37.950Z,46.37
2019-02-02T13:05:00.541Z,40.73
2019-02-02T13:07:28.451Z,42.90
2019-02-02T13:09:55.935Z,45.40
2019-02-02T13:15:27.870Z,43.73
2019-02-02T13:17:55.555Z,42.37
2019-02-02T13:20:25.121Z,42.80
2019-02-02T13:22:52.711Z,41.10
2019-02-02T13:25:20.766Z,41.93
2019-02-02T13:27:48.523Z,43.80
2019-02-02T13:30:27.360Z,41.30
2019-02-02T13:32:55.309Z,41.13
2019-02-02T13:35:22.926Z,45.43
2019-02-02T13:37:50.571Z,47.37
2019-02-02T13:40:19.060Z,44.73
2019-02-02T13:42:46.660Z,43.40
2019-02-02T13:45:15.571Z,44.70
2019-02-02T13:47:43.250Z,42.17
2019-02-02T13:50:12.991Z,43.23
2019-02-02T13:52:40.680Z,43.50
2019-02-02T13:55:08.579Z,46.23
2019-02-02T13:57:36.120Z,44.10
2019-02-02T14:00:05.710Z,42.63
2019-02-02T14:02:33.385Z,43.90
2019-02-02T14:05:01.065Z,42.87
2019-02-02T14:10:29.015Z,46.03
2019-02-02T14:13:03.731Z,43.97
2019-02-02T14:15:31.415Z,42.87
2019-02-02T14:35:29.940Z,48.53
2019-02-02T14:38:29.260Z,51.37
2019-02-02T14:40:57.580Z,45.87
2019-02-02T14:44:43.455Z,47.37
2019-02-02T14:50:15.056Z,46.90
2019-02-02T14:54:07.415Z,51.20
2019-02-02T15:00:23.161Z,45.13
2019-02-02T15:02:57.639Z,48.40
2019-02-02T15:05:42.657Z,49.80
2019-02-02T15:08:10.425Z,52.63
2019-02-02T15:26:30.540Z,49.67
2019-02-02T15:33:11.423Z,52.23
2019-02-02T15:51:40.531Z,51.37
2019-02-02T16:18:05.969Z,50.93
2019-02-02T16:21:37.352Z,51.03
2019-02-02T16:24:45.844Z,53.03
2019-02-02T16:42:07.736Z,52.03
2019-02-02T16:44:35.535Z,54.50
2019-02-02T16:47:03.625Z,54.03
2019-02-02T16:49:31.455Z,54.90
2019-02-02T16:51:59.308Z,53.93
2019-02-02T16:54:27.229Z,52.30
2019-02-02T16:56:55.226Z,52.27
2019-02-02T16:59:23.065Z,48.47
2019-02-02T17:01:51.036Z,53.33
2019-02-02T17:04:19.065Z,53.43
2019-02-02T17:06:47.062Z,53.17
2019-02-02T17:09:14.934Z,54.23
2019-02-02T17:11:42.931Z,52.23
2019-02-02T17:14:10.950Z,54.73
2019-02-02T17:16:38.900Z,53.93
2019-02-02T17:19:06.845Z,51.93
2019-02-02T17:21:36.250Z,56.87
2019-02-02T17:24:04.445Z,54.03
2019-02-02T17:26:32.240Z,54.67
2019-02-02T17:29:00.451Z,55.03
2019-02-02T17:31:28.655Z,55.87
2019-02-02T17:33:56.535Z,58.60
2019-02-02T17:36:24.465Z,54.27
2019-02-02T17:38:52.645Z,55.10
2019-02-02T17:41:20.600Z,54.87
2019-02-02T17:43:48.463Z,56.87
2019-02-02T17:46:16.409Z,52.20
2019-02-02T17:48:44.292Z,53.90
2019-02-02T17:51:12.201Z,54.43
2019-02-02T17:53:40.220Z,55.47
2019-02-02T17:56:08.141Z,50.50
2019-02-02T17:58:39.639Z,52.30
2019-02-02T18:01:06.001Z,53.63
2019-02-02T18:03:33.836Z,54.37
2019-02-02T18:06:01.521Z,55.60
2019-02-02T18:08:29.543Z,56.37
2019-02-02T18:10:57.446Z,56.00
2019-02-02T18:13:25.441Z,53.30
2019-02-02T18:15:53.410Z,60.20
2019-02-02T18:18:21.288Z,58.50
2019-02-02T18:20:49.223Z,55.90
2019-02-02T18:23:18.342Z,55.07
2019-02-02T18:25:46.678Z,51.57
2019-02-02T18:28:14.650Z,53.33
2019-02-02T18:30:43.092Z,56.27
2019-02-02T18:33:11.082Z,57.37
2019-02-02T18:35:39.059Z,55.60
2019-02-02T18:38:06.956Z,55.80
2019-02-02T18:40:34.947Z,54.63
2019-02-02T18:43:02.933Z,56.37
2019-02-02T18:45:30.918Z,57.47
2019-02-02T18:47:59.806Z,59.00
2019-02-02T18:50:27.837Z,58.87
2019-02-02T18:52:55.866Z,58.20
2019-02-02T18:55:29.477Z,58.20
2019-02-02T18:57:57.405Z,56.53
2019-02-02T19:00:25.406Z,55.50
2019-02-02T19:02:53.456Z,56.90
2019-02-02T19:05:21.493Z,55.70
2019-02-02T19:07:49.476Z,55.67
2019-02-02T19:10:22.929Z,57.27
2019-02-02T19:12:50.896Z,55.33
2019-02-02T19:15:19.891Z,55.37
2019-02-02T19:17:47.844Z,57.50
2019-02-02T19:20:17.608Z,57.90
2019-02-02T19:22:45.523Z,59.83
2019-02-02T19:25:13.491Z,58.37
2019-02-02T19:27:41.456Z,57.30
2019-02-02T19:30:20.735Z,58.67
2019-02-02T19:32:49.678Z,56.40
2019-02-02T19:35:17.744Z,57.73
2019-02-02T19:37:45.713Z,58.60
2019-02-02T19:40:14.174Z,61.83
2019-02-02T19:42:42.226Z,59.70
2019-02-02T19:45:11.492Z,61.30
2019-02-02T19:47:45.316Z,58.87
2019-02-02T19:50:16.256Z,59.37
2019-02-02T19:52:44.212Z,61.37
2019-02-02T19:55:14.719Z,53.73
2019-02-02T19:57:41.977Z,62.17
2019-02-02T20:00:16.535Z,61.80
2019-02-02T20:02:44.957Z,56.30
2019-02-02T20:05:12.971Z,60.83
2019-02-02T20:07:40.932Z,59.63
2019-02-02T20:10:11.272Z,61.00
2019-02-02T20:12:39.226Z,64.73
2019-02-02T20:15:09.061Z,60.30
2019-02-02T20:17:37.007Z,58.77
2019-02-02T20:20:06.731Z,65.27
2019-02-02T20:22:34.727Z,63.67
2019-02-02T20:25:03.106Z,57.07
2019-02-02T20:27:31.065Z,61.70
2019-02-02T20:29:59.056Z,60.53
2019-02-02T20:32:26.997Z,61.37
2019-02-02T20:34:54.823Z,63.23
2019-02-02T20:37:22.891Z,61.83
2019-02-02T20:39:50.826Z,62.33
2019-02-02T20:42:18.836Z,61.27
2019-02-02T20:44:46.831Z,61.47
2019-02-02T20:47:14.916Z,62.90
2019-02-02T20:49:51.736Z,61.47
2019-02-02T20:52:22.350Z,58.27
2019-02-02T20:54:49.778Z,58.80
2019-02-02T20:57:17.732Z,58.90
2019-02-02T20:59:45.686Z,58.63
2019-02-02T21:02:16.166Z,59.40
2019-02-02T21:04:44.048Z,56.83
2019-02-02T21:07:11.941Z,56.30
2019-02-02T21:09:39.871Z,57.83
2019-02-02T21:12:07.867Z,52.03
2019-02-02T21:14:35.761Z,57.03
2019-02-02T21:17:03.761Z,58.43
2019-02-02T21:19:31.716Z,55.00
2019-02-02T21:21:59.959Z,56.10
2019-02-02T21:24:27.939Z,56.43
2019-02-02T21:26:55.639Z,54.40
2019-02-02T21:29:23.406Z,58.70
2019-02-02T21:31:51.341Z,53.40
2019-02-02T21:34:19.256Z,54.67
2019-02-02T21:36:47.100Z,52.60
2019-02-02T21:39:15.041Z,52.43
2019-02-02T21:41:42.906Z,56.93
2019-02-02T21:44:10.866Z,49.97
2019-02-02T21:46:39.247Z,50.87
2019-02-02T21:49:07.007Z,48.57
2019-02-02T21:51:35.001Z,52.37
2019-02-02T21:54:02.991Z,48.77
2019-02-02T21:56:30.977Z,52.77
2019-02-02T21:58:58.781Z,47.70
2019-02-02T22:01:26.561Z,53.13
2019-02-02T22:03:54.492Z,50.33
2019-02-02T22:06:22.101Z,52.73
2019-02-02T22:08:49.786Z,51.53
2019-02-02T22:11:17.306Z,47.93
2019-02-02T22:13:44.906Z,49.33
2019-02-02T22:16:12.567Z,45.77
2019-02-02T22:18:40.037Z,48.83
2019-02-02T22:21:07.520Z,47.97
2019-02-02T22:23:35.084Z,45.80
2019-02-02T22:26:02.557Z,50.13
2019-02-02T22:28:30.222Z,48.63
2019-02-02T22:30:57.787Z,48.87
2019-02-02T22:33:25.526Z,44.77
2019-02-02T22:35:53.027Z,48.83
2019-02-02T22:38:20.502Z,49.93
2019-02-02T22:40:47.916Z,48.77
2019-02-02T22:43:15.456Z,46.83
2019-02-02T22:45:42.906Z,48.43
2019-02-02T22:48:10.830Z,48.37
2019-02-02T22:50:38.272Z,50.63
2019-02-02T22:53:05.887Z,50.87
2019-02-02T22:55:33.389Z,47.10
2019-02-02T22:58:00.837Z,51.93
2019-02-02T23:01:17.922Z,51.07
2019-02-02T23:04:09.437Z,48.13
2019-02-02T23:07:17.391Z,48.30
2019-02-02T23:10:28.671Z,51.30
2019-02-02T23:13:20.036Z,48.40
2019-02-02T23:16:25.926Z,51.60
2019-02-02T23:18:54.106Z,43.27
2019-02-02T23:21:22.061Z,50.53
2019-02-02T23:23:49.589Z,52.07
2019-02-02T23:26:17.019Z,43.37
2019-02-02T23:28:44.486Z,51.20
2019-02-02T23:31:11.908Z,46.57
2019-02-02T23:33:39.659Z,50.77
2019-02-02T23:36:07.182Z,48.40
2019-02-02T23:38:34.666Z,52.17
2019-02-02T23:41:02.061Z,49.57
2019-02-02T23:43:29.504Z,50.60
2019-02-02T23:45:56.986Z,49.83
2019-02-02T23:48:24.781Z,50.20
2019-02-02T23:50:52.292Z,47.20
2019-02-02T23:53:19.731Z,47.13
2019-02-02T23:55:47.272Z,47.60
2019-02-02T23:58:14.685Z,45.73
